sensor_id;sensor_type;location;lat;lon;timestamp;pressure;altitude;pressure_sealevel;temperature;humidity
80137;BME280;69466;55.948;37.484;2024-02-23T00:00:12;99817.44;;;-1.32;78.87
80137;BME280;69466;55.948;37.484;2024-02-23T00:02:38;99810.72;;;-1.46;78.98
80137;BME280;69466;55.948;37.484;2024-02-23T00:05:04;99842.25;;;-1.31;78.44
80137;BME280;69466;55.948;37.484;2024-02-23T00:07:30;99839.31;;;-1.28;78.29
80137;BME280;69466;55.948;37.484;2024-02-23T00:09:56;99823.59;;;-1.31;78.67
80137;BME280;69466;55.948;37.484;2024-02-23T00:12:22;99819.84;;;-1.29;78.29
80137;BME280;69466;55.948;37.484;2024-02-23T00:14:48;99808.22;;;-1.38;78.95
80137;BME280;69466;55.948;37.484;2024-02-23T00:17:16;99827.97;;;-1.30;78.71
80137;BME280;69466;55.948;37.484;2024-02-23T00:19:45;99835.09;;;-1.31;78.84
80137;BME280;69466;55.948;37.484;2024-02-23T00:22:11;99835.38;;;-1.34;78.42
80137;BME280;69466;55.948;37.484;2024-02-23T00:24:37;99832.75;;;-1.24;78.56
80137;BME280;69466;55.948;37.484;2024-02-23T00:27:03;99819.25;;;-1.33;78.36
80137;BME280;69466;55.948;37.484;2024-02-23T00:29:29;99808.34;;;-1.39;77.86
80137;BME280;69466;55.948;37.484;2024-02-23T00:31:55;99829.38;;;-1.26;78.91
80137;BME280;69466;55.948;37.484;2024-02-23T00:34:21;99816.06;;;-1.26;78.79
80137;BME280;69466;55.948;37.484;2024-02-23T00:36:48;99820.53;;;-1.27;78.39
80137;BME280;69466;55.948;37.484;2024-02-23T00:39:15;99792.25;;;-1.38;78.60
80137;BME280;69466;55.948;37.484;2024-02-23T00:41:41;99811.88;;;-1.29;79.30
80137;BME280;69466;55.948;37.484;2024-02-23T00:44:07;99824.75;;;-1.24;78.71
80137;BME280;69466;55.948;37.484;2024-02-23T00:46:33;99829.34;;;-1.36;79.49
80137;BME280;69466;55.948;37.484;2024-02-23T00:49:00;99842.97;;;-1.29;79.47
80137;BME280;69466;55.948;37.484;2024-02-23T00:51:26;99843.09;;;-1.21;79.80
80137;BME280;69466;55.948;37.484;2024-02-23T00:53:52;99838.63;;;-1.21;79.15
80137;BME280;69466;55.948;37.484;2024-02-23T00:56:18;99842.81;;;-1.38;79.18
80137;BME280;69466;55.948;37.484;2024-02-23T00:58:44;99831.91;;;-1.25;79.26
80137;BME280;69466;55.948;37.484;2024-02-23T01:01:10;99840.72;;;-1.24;78.56
80137;BME280;69466;55.948;37.484;2024-02-23T01:03:36;99836.22;;;-1.33;79.18
80137;BME280;69466;55.948;37.484;2024-02-23T01:06:02;99840.44;;;-1.21;78.87
80137;BME280;69466;55.948;37.484;2024-02-23T01:08:28;99841.72;;;-1.16;78.68
80137;BME280;69466;55.948;37.484;2024-02-23T01:10:54;99847.72;;;-1.14;78.92
80137;BME280;69466;55.948;37.484;2024-02-23T01:13:20;99819.00;;;-1.29;78.54
80137;BME280;69466;55.948;37.484;2024-02-23T01:15:46;99841.41;;;-1.13;78.46
80137;BME280;69466;55.948;37.484;2024-02-23T01:18:12;99844.94;;;-1.12;77.99
80137;BME280;69466;55.948;37.484;2024-02-23T01:20:38;99831.91;;;-1.15;78.34
80137;BME280;69466;55.948;37.484;2024-02-23T01:23:04;99833.13;;;-1.10;78.08
80137;BME280;69466;55.948;37.484;2024-02-23T01:25:30;99836.09;;;-1.13;78.24
80137;BME280;69466;55.948;37.484;2024-02-23T01:27:56;99831.19;;;-1.17;78.21
80137;BME280;69466;55.948;37.484;2024-02-23T01:30:22;99836.22;;;-1.14;78.11
80137;BME280;69466;55.948;37.484;2024-02-23T01:32:48;99837.50;;;-0.99;77.74
80137;BME280;69466;55.948;37.484;2024-02-23T01:35:16;99835.38;;;-1.05;77.71
80137;BME280;69466;55.948;37.484;2024-02-23T01:37:42;99824.19;;;-1.09;77.38
80137;BME280;69466;55.948;37.484;2024-02-23T01:40:08;99835.13;;;-1.12;78.00
80137;BME280;69466;55.948;37.484;2024-02-23T01:42:34;99822.22;;;-1.16;77.43
80137;BME280;69466;55.948;37.484;2024-02-23T01:45:00;99821.69;;;-1.10;77.48
80137;BME280;69466;55.948;37.484;2024-02-23T01:47:30;99830.91;;;-1.05;77.96
80137;BME280;69466;55.948;37.484;2024-02-23T01:49:58;99836.53;;;-0.98;77.75
80137;BME280;69466;55.948;37.484;2024-02-23T01:52:25;99829.50;;;-0.99;77.33
80137;BME280;69466;55.948;37.484;2024-02-23T01:54:52;99827.25;;;-1.13;77.02
80137;BME280;69466;55.948;37.484;2024-02-23T01:57:20;99830.63;;;-1.02;77.15
80137;BME280;69466;55.948;37.484;2024-02-23T01:59:48;99837.50;;;-0.99;77.09
80137;BME280;69466;55.948;37.484;2024-02-23T02:02:14;99828.41;;;-0.97;77.70
80137;BME280;69466;55.948;37.484;2024-02-23T02:04:40;99826.72;;;-0.98;77.52
80137;BME280;69466;55.948;37.484;2024-02-23T02:07:07;99835.53;;;-0.87;77.63
80137;BME280;69466;55.948;37.484;2024-02-23T02:09:33;99826.28;;;-0.93;77.25
80137;BME280;69466;55.948;37.484;2024-02-23T02:11:59;99830.22;;;-0.97;77.32
80137;BME280;69466;55.948;37.484;2024-02-23T02:14:25;99837.91;;;-0.94;77.60
80137;BME280;69466;55.948;37.484;2024-02-23T02:16:51;99831.75;;;-0.95;77.04
80137;BME280;69466;55.948;37.484;2024-02-23T02:19:18;99823.63;;;-1.03;77.40
80137;BME280;69466;55.948;37.484;2024-02-23T02:21:44;99822.50;;;-1.00;77.55
80137;BME280;69466;55.948;37.484;2024-02-23T02:24:10;99836.22;;;-0.95;77.11
80137;BME280;69466;55.948;37.484;2024-02-23T02:26:37;99825.44;;;-1.03;77.90
80137;BME280;69466;55.948;37.484;2024-02-23T02:29:03;99840.16;;;-0.99;77.14
80137;BME280;69466;55.948;37.484;2024-02-23T02:31:30;99847.16;;;-0.98;77.23
80137;BME280;69466;55.948;37.484;2024-02-23T02:34:12;99836.66;;;-1.00;77.42
80137;BME280;69466;55.948;37.484;2024-02-23T02:36:42;99803.59;;;-1.16;77.35
80137;BME280;69466;55.948;37.484;2024-02-23T02:39:08;99819.56;;;-1.07;78.12
80137;BME280;69466;55.948;37.484;2024-02-23T02:41:35;99814.38;;;-0.99;77.80
80137;BME280;69466;55.948;37.484;2024-02-23T02:44:01;99804.00;;;-1.02;77.04
80137;BME280;69466;55.948;37.484;2024-02-23T02:46:28;99819.16;;;-0.93;77.46
80137;BME280;69466;55.948;37.484;2024-02-23T02:48:54;99832.47;;;-0.93;77.76
80137;BME280;69466;55.948;37.484;2024-02-23T02:51:20;99827.13;;;-1.02;77.46
80137;BME280;69466;55.948;37.484;2024-02-23T02:53:47;99837.38;;;-0.98;78.04
80137;BME280;69466;55.948;37.484;2024-02-23T02:56:13;99831.88;;;-0.96;77.29
80137;BME280;69466;55.948;37.484;2024-02-23T02:58:39;99838.88;;;-0.95;77.21
80137;BME280;69466;55.948;37.484;2024-02-23T03:01:05;99807.66;;;-0.93;77.14
80137;BME280;69466;55.948;37.484;2024-02-23T03:03:31;99829.50;;;-0.80;77.33
80137;BME280;69466;55.948;37.484;2024-02-23T03:05:57;99810.16;;;-0.92;77.38
80137;BME280;69466;55.948;37.484;2024-02-23T03:08:23;99839.72;;;-0.85;77.47
80137;BME280;69466;55.948;37.484;2024-02-23T03:10:49;99820.81;;;-0.92;76.75
80137;BME280;69466;55.948;37.484;2024-02-23T03:13:16;99847.16;;;-0.88;77.14
80137;BME280;69466;55.948;37.484;2024-02-23T03:15:43;99846.19;;;-0.87;77.08
80137;BME280;69466;55.948;37.484;2024-02-23T03:18:09;99833.13;;;-0.91;77.41
80137;BME280;69466;55.948;37.484;2024-02-23T03:20:35;99836.66;;;-0.90;77.57
80137;BME280;69466;55.948;37.484;2024-02-23T03:23:01;99841.00;;;-0.89;77.19
80137;BME280;69466;55.948;37.484;2024-02-23T03:25:29;99851.22;;;-0.94;77.68
80137;BME280;69466;55.948;37.484;2024-02-23T03:27:55;99848.44;;;-0.83;76.96
80137;BME280;69466;55.948;37.484;2024-02-23T03:30:21;99851.78;;;-0.91;77.45
80137;BME280;69466;55.948;37.484;2024-02-23T03:32:47;99855.28;;;-0.90;77.35
80137;BME280;69466;55.948;37.484;2024-02-23T03:35:13;99866.25;;;-0.83;77.56
80137;BME280;69466;55.948;37.484;2024-02-23T03:37:40;99864.25;;;-0.81;77.42
80137;BME280;69466;55.948;37.484;2024-02-23T03:40:07;99868.19;;;-0.85;77.47
80137;BME280;69466;55.948;37.484;2024-02-23T03:42:33;99832.16;;;-0.90;77.41
80137;BME280;69466;55.948;37.484;2024-02-23T03:44:59;99861.59;;;-0.91;77.89
80137;BME280;69466;55.948;37.484;2024-02-23T03:47:25;99855.28;;;-0.80;77.33
80137;BME280;69466;55.948;37.484;2024-02-23T03:49:51;99853.19;;;-0.86;77.44
80137;BME280;69466;55.948;37.484;2024-02-23T03:52:17;99860.31;;;-0.87;77.45
80137;BME280;69466;55.948;37.484;2024-02-23T03:54:43;99848.28;;;-0.91;78.15
80137;BME280;69466;55.948;37.484;2024-02-23T03:57:09;99851.66;;;-0.79;77.58
80137;BME280;69466;55.948;37.484;2024-02-23T03:59:36;99858.94;;;-0.72;77.49
80137;BME280;69466;55.948;37.484;2024-02-23T04:02:03;99860.47;;;-0.69;77.24
80137;BME280;69466;55.948;37.484;2024-02-23T04:04:30;99849.41;;;-0.74;77.76
80137;BME280;69466;55.948;37.484;2024-02-23T04:06:56;99864.25;;;-0.72;77.72
80137;BME280;69466;55.948;37.484;2024-02-23T04:09:24;99868.75;;;-0.72;77.38
80137;BME280;69466;55.948;37.484;2024-02-23T04:11:51;99840.44;;;-0.83;77.48
80137;BME280;69466;55.948;37.484;2024-02-23T04:14:17;99865.81;;;-0.69;77.46
80137;BME280;69466;55.948;37.484;2024-02-23T04:16:43;99848.69;;;-0.67;77.47
80137;BME280;69466;55.948;37.484;2024-02-23T04:19:09;99856.69;;;-0.67;77.51
80137;BME280;69466;55.948;37.484;2024-02-23T04:21:35;99867.47;;;-0.68;78.00
80137;BME280;69466;55.948;37.484;2024-02-23T04:24:02;99857.94;;;-0.71;77.70
80137;BME280;69466;55.948;37.484;2024-02-23T04:26:28;99858.63;;;-0.59;77.95
80137;BME280;69466;55.948;37.484;2024-02-23T04:28:54;99864.81;;;-0.68;77.53
80137;BME280;69466;55.948;37.484;2024-02-23T04:31:20;99876.59;;;-0.71;78.37
80137;BME280;69466;55.948;37.484;2024-02-23T04:33:46;99880.66;;;-0.67;77.78
80137;BME280;69466;55.948;37.484;2024-02-23T04:36:12;99886.53;;;-0.63;77.74
80137;BME280;69466;55.948;37.484;2024-02-23T04:38:39;99872.66;;;-0.67;78.10
80137;BME280;69466;55.948;37.484;2024-02-23T04:41:05;99890.34;;;-0.66;77.89
80137;BME280;69466;55.948;37.484;2024-02-23T04:43:31;99866.25;;;-0.83;78.21
80137;BME280;69466;55.948;37.484;2024-02-23T04:45:57;99890.47;;;-0.67;78.74
80137;BME280;69466;55.948;37.484;2024-02-23T04:48:23;99879.38;;;-0.63;78.33
80137;BME280;69466;55.948;37.484;2024-02-23T04:50:50;99883.19;;;-0.56;78.50
80137;BME280;69466;55.948;37.484;2024-02-23T04:53:16;99881.91;;;-0.61;78.91
80137;BME280;69466;55.948;37.484;2024-02-23T04:55:42;99886.97;;;-0.58;78.65
80137;BME280;69466;55.948;37.484;2024-02-23T04:58:08;99891.44;;;-0.59;79.14
80137;BME280;69466;55.948;37.484;2024-02-23T05:00:34;99887.81;;;-0.58;78.74
80137;BME280;69466;55.948;37.484;2024-02-23T05:03:01;99881.38;;;-0.65;79.07
80137;BME280;69466;55.948;37.484;2024-02-23T05:05:30;99877.31;;;-0.69;78.68
80137;BME280;69466;55.948;37.484;2024-02-23T05:07:58;99888.94;;;-0.51;78.37
80137;BME280;69466;55.948;37.484;2024-02-23T05:10:25;99878.13;;;-0.59;78.58
80137;BME280;69466;55.948;37.484;2024-02-23T05:12:51;99914.31;;;-0.56;79.05
80137;BME280;69466;55.948;37.484;2024-02-23T05:15:20;99896.09;;;-0.70;79.20
80137;BME280;69466;55.948;37.484;2024-02-23T05:17:49;99899.59;;;-0.70;79.63
80137;BME280;69466;55.948;37.484;2024-02-23T05:20:15;99896.22;;;-0.81;79.69
80137;BME280;69466;55.948;37.484;2024-02-23T05:22:41;99901.00;;;-0.66;79.03
80137;BME280;69466;55.948;37.484;2024-02-23T05:25:08;99902.69;;;-0.65;78.64
80137;BME280;69466;55.948;37.484;2024-02-23T05:27:35;99912.06;;;-0.70;79.79
80137;BME280;69466;55.948;37.484;2024-02-23T05:30:01;99896.22;;;-0.81;79.64
80137;BME280;69466;55.948;37.484;2024-02-23T05:32:30;99916.13;;;-0.76;79.50
80137;BME280;69466;55.948;37.484;2024-02-23T05:34:56;99917.81;;;-0.75;79.70
80137;BME280;69466;55.948;37.484;2024-02-23T05:37:22;99885.16;;;-0.86;79.12
80137;BME280;69466;55.948;37.484;2024-02-23T05:39:49;99899.06;;;-0.83;79.11
80137;BME280;69466;55.948;37.484;2024-02-23T05:42:15;99902.81;;;-0.76;79.24
80137;BME280;69466;55.948;37.484;2024-02-23T05:44:45;99914.03;;;-0.63;79.13
80137;BME280;69466;55.948;37.484;2024-02-23T05:47:12;99914.03;;;-0.63;79.16
80137;BME280;69466;55.948;37.484;2024-02-23T05:49:39;99931.56;;;-0.60;79.75
80137;BME280;69466;55.948;37.484;2024-02-23T05:52:07;99917.84;;;-0.65;79.48
80137;BME280;69466;55.948;37.484;2024-02-23T05:54:33;99910.38;;;-0.62;78.99
80137;BME280;69466;55.948;37.484;2024-02-23T05:56:59;99926.25;;;-0.51;79.29
80137;BME280;69466;55.948;37.484;2024-02-23T05:59:27;99894.28;;;-0.70;79.49
80137;BME280;69466;55.948;37.484;2024-02-23T06:01:54;99899.44;;;-0.68;78.81
80137;BME280;69466;55.948;37.484;2024-02-23T06:04:23;99907.16;;;-0.56;78.92
80137;BME280;69466;55.948;37.484;2024-02-23T06:06:52;99910.38;;;-0.52;79.18
80137;BME280;69466;55.948;37.484;2024-02-23T06:09:18;99927.06;;;-0.50;78.84
80137;BME280;69466;55.948;37.484;2024-02-23T06:11:45;99897.06;;;-0.62;78.52
80137;BME280;69466;55.948;37.484;2024-02-23T06:14:13;99899.31;;;-0.67;79.22
80137;BME280;69466;55.948;37.484;2024-02-23T06:16:41;99935.22;;;-0.42;79.20
80137;BME280;69466;55.948;37.484;2024-02-23T06:19:09;99942.50;;;-0.34;79.05
80137;BME280;69466;55.948;37.484;2024-02-23T06:21:37;99941.78;;;-0.36;78.56
80137;BME280;69466;55.948;37.484;2024-02-23T06:24:04;99910.94;;;-0.68;78.92
80137;BME280;69466;55.948;37.484;2024-02-23T06:26:30;99910.94;;;-0.58;79.46
80137;BME280;69466;55.948;37.484;2024-02-23T06:28:58;99929.59;;;-0.58;79.49
80137;BME280;69466;55.948;37.484;2024-02-23T06:31:24;99954.56;;;-0.40;79.07
80137;BME280;69466;55.948;37.484;2024-02-23T06:33:52;99920.06;;;-0.61;79.16
80137;BME280;69466;55.948;37.484;2024-02-23T06:36:18;99945.72;;;-0.40;78.97
80137;BME280;69466;55.948;37.484;2024-02-23T06:38:44;99943.22;;;-0.42;79.26
80137;BME280;69466;55.948;37.484;2024-02-23T06:41:12;99946.97;;;-0.45;78.36
80137;BME280;69466;55.948;37.484;2024-02-23T06:43:39;99947.41;;;-0.39;79.49
80137;BME280;69466;55.948;37.484;2024-02-23T06:46:09;99945.88;;;-0.42;79.53
80137;BME280;69466;55.948;37.484;2024-02-23T06:48:36;99970.97;;;-0.35;79.42
80137;BME280;69466;55.948;37.484;2024-02-23T06:51:03;99964.53;;;-0.42;79.04
80137;BME280;69466;55.948;37.484;2024-02-23T06:53:29;99949.38;;;-0.41;79.73
80137;BME280;69466;55.948;37.484;2024-02-23T06:55:55;99954.56;;;-0.40;79.28
80137;BME280;69466;55.948;37.484;2024-02-23T06:58:23;99939.16;;;-0.56;79.52
80137;BME280;69466;55.948;37.484;2024-02-23T07:00:49;99938.31;;;-0.47;79.41
80137;BME280;69466;55.948;37.484;2024-02-23T07:03:15;99946.00;;;-0.34;79.30
80137;BME280;69466;55.948;37.484;2024-02-23T07:05:42;99954.56;;;-0.30;78.87
80137;BME280;69466;55.948;37.484;2024-02-23T07:08:08;99973.63;;;-0.25;79.13
80137;BME280;69466;55.948;37.484;2024-02-23T07:10:34;99953.72;;;-0.31;78.94
80137;BME280;69466;55.948;37.484;2024-02-23T07:13:00;99942.06;;;-0.30;78.74
80137;BME280;69466;55.948;37.484;2024-02-23T07:15:26;99949.94;;;-0.28;78.89
80137;BME280;69466;55.948;37.484;2024-02-23T07:17:53;99963.25;;;-0.28;79.03
80137;BME280;69466;55.948;37.484;2024-02-23T07:20:19;99975.75;;;-0.19;78.64
80137;BME280;69466;55.948;37.484;2024-02-23T07:22:46;99941.09;;;-0.29;78.56
80137;BME280;69466;55.948;37.484;2024-02-23T07:25:19;99974.31;;;-0.14;78.45
80137;BME280;69466;55.948;37.484;2024-02-23T07:27:49;99956.91;;;-0.27;78.41
80137;BME280;69466;55.948;37.484;2024-02-23T07:30:16;99964.47;;;-0.13;78.35
80137;BME280;69466;55.948;37.484;2024-02-23T07:32:43;99955.06;;;-0.08;77.96
80137;BME280;69466;55.948;37.484;2024-02-23T07:35:10;99937.41;;;-0.18;77.59
80137;BME280;69466;55.948;37.484;2024-02-23T07:37:43;99947.94;;;-0.17;78.12
80137;BME280;69466;55.948;37.484;2024-02-23T07:40:13;99971.06;;;0.02;77.68
80137;BME280;69466;55.948;37.484;2024-02-23T07:42:42;99959.31;;;-0.05;77.32
80137;BME280;69466;55.948;37.484;2024-02-23T07:45:09;99973.31;;;-0.03;77.73
80137;BME280;69466;55.948;37.484;2024-02-23T07:47:39;99940.91;;;-0.18;77.47
80137;BME280;69466;55.948;37.484;2024-02-23T07:50:08;99962.22;;;-0.08;78.00
80137;BME280;69466;55.948;37.484;2024-02-23T07:52:38;99945.25;;;-0.07;77.62
80137;BME280;69466;55.948;37.484;2024-02-23T07:55:04;99928.94;;;-0.04;77.27
80137;BME280;69466;55.948;37.484;2024-02-23T07:57:35;99954.63;;;0.07;77.12
80137;BME280;69466;55.948;37.484;2024-02-23T08:00:04;99945.53;;;-0.01;77.42
80137;BME280;69466;55.948;37.484;2024-02-23T08:02:38;99964.56;;;0.14;77.25
80137;BME280;69466;55.948;37.484;2024-02-23T08:05:15;99978.03;;;0.22;76.95
80137;BME280;69466;55.948;37.484;2024-02-23T08:07:42;99960.66;;;0.18;76.29
80137;BME280;69466;55.948;37.484;2024-02-23T08:10:41;99987.44;;;0.26;76.17
80137;BME280;69466;55.948;37.484;2024-02-23T08:13:07;99978.75;;;0.15;76.24
80137;BME280;69466;55.948;37.484;2024-02-23T08:15:41;99974.00;;;0.18;76.41
80137;BME280;69466;55.948;37.484;2024-02-23T08:18:10;99984.59;;;0.28;76.19
80137;BME280;69466;55.948;37.484;2024-02-23T08:20:36;99975.09;;;0.16;75.96
80137;BME280;69466;55.948;37.484;2024-02-23T08:23:03;99981.41;;;0.24;76.31
80137;BME280;69466;55.948;37.484;2024-02-23T08:25:32;99957.69;;;0.12;75.91
80137;BME280;69466;55.948;37.484;2024-02-23T08:27:58;99976.06;;;0.24;76.17
80137;BME280;69466;55.948;37.484;2024-02-23T08:30:25;99994.72;;;0.34;75.71
80137;BME280;69466;55.948;37.484;2024-02-23T08:32:52;99973.13;;;0.27;75.53
80137;BME280;69466;55.948;37.484;2024-02-23T08:35:18;99975.78;;;0.27;75.84
80137;BME280;69466;55.948;37.484;2024-02-23T08:37:56;99991.75;;;0.37;75.76
80137;BME280;69466;55.948;37.484;2024-02-23T08:40:25;99965.69;;;0.21;75.47
80137;BME280;69466;55.948;37.484;2024-02-23T08:42:51;99960.78;;;0.17;75.44
80137;BME280;69466;55.948;37.484;2024-02-23T08:45:19;99997.38;;;0.34;76.44
80137;BME280;69466;55.948;37.484;2024-02-23T08:47:45;99997.22;;;0.45;75.61
80137;BME280;69466;55.948;37.484;2024-02-23T08:50:13;99973.25;;;0.26;75.81
80137;BME280;69466;55.948;37.484;2024-02-23T08:52:50;99966.13;;;0.17;75.82
80137;BME280;69466;55.948;37.484;2024-02-23T08:55:22;100003.84;;;0.41;75.98
80137;BME280;69466;55.948;37.484;2024-02-23T08:57:57;100003.53;;;0.44;76.13
80137;BME280;69466;55.948;37.484;2024-02-23T09:00:25;100008.03;;;0.43;75.87
80137;BME280;69466;55.948;37.484;2024-02-23T09:06:10;99989.66;;;0.40;75.39
80137;BME280;69466;55.948;37.484;2024-02-23T09:09:23;100024.75;;;0.46;76.04
80137;BME280;69466;55.948;37.484;2024-02-23T09:11:58;99988.09;;;0.38;75.95
80137;BME280;69466;55.948;37.484;2024-02-23T09:14:24;99994.28;;;0.38;75.86
80137;BME280;69466;55.948;37.484;2024-02-23T09:16:52;99999.91;;;0.35;75.72
80137;BME280;69466;55.948;37.484;2024-02-23T09:19:32;99980.41;;;0.25;75.73
80137;BME280;69466;55.948;37.484;2024-02-23T09:22:58;99972.53;;;0.24;75.46
80137;BME280;69466;55.948;37.484;2024-02-23T09:25:25;99995.50;;;0.54;75.17
80137;BME280;69466;55.948;37.484;2024-02-23T09:28:00;100018.91;;;0.60;75.41
80137;BME280;69466;55.948;37.484;2024-02-23T09:30:32;100013.00;;;0.66;74.82
80137;BME280;69466;55.948;37.484;2024-02-23T09:32:58;100008.91;;;0.71;75.04
80137;BME280;69466;55.948;37.484;2024-02-23T09:35:27;100005.13;;;0.64;74.81
80137;BME280;69466;55.948;37.484;2024-02-23T09:37:53;99997.97;;;0.65;74.72
80137;BME280;69466;55.948;37.484;2024-02-23T09:40:19;100006.69;;;0.67;74.86
80137;BME280;69466;55.948;37.484;2024-02-23T09:42:57;99981.94;;;0.65;74.74
80137;BME280;69466;55.948;37.484;2024-02-23T09:45:29;100018.00;;;0.78;75.51
80137;BME280;69466;55.948;37.484;2024-02-23T09:48:02;99978.16;;;0.67;74.44
80137;BME280;69466;55.948;37.484;2024-02-23T09:50:32;100005.66;;;0.77;74.75
80137;BME280;69466;55.948;37.484;2024-02-23T09:53:01;99980.78;;;0.77;74.71
80137;BME280;69466;55.948;37.484;2024-02-23T09:55:30;100008.09;;;0.98;73.90
80137;BME280;69466;55.948;37.484;2024-02-23T09:58:00;100027.59;;;1.08;74.26
80137;BME280;69466;55.948;37.484;2024-02-23T10:00:27;100016.06;;;1.08;74.44
80137;BME280;69466;55.948;37.484;2024-02-23T10:02:54;100040.22;;;1.06;74.54
80137;BME280;69466;55.948;37.484;2024-02-23T10:05:29;100018.47;;;1.01;74.02
80137;BME280;69466;55.948;37.484;2024-02-23T10:07:55;99996.16;;;0.93;74.14
80137;BME280;69466;55.948;37.484;2024-02-23T10:10:33;100016.44;;;1.13;73.86
80137;BME280;69466;55.948;37.484;2024-02-23T10:13:03;100030.94;;;1.10;73.90
80137;BME280;69466;55.948;37.484;2024-02-23T10:15:40;100020.50;;;1.17;73.79
80137;BME280;69466;55.948;37.484;2024-02-23T10:18:07;100024.09;;;1.25;74.43
80137;BME280;69466;55.948;37.484;2024-02-23T10:20:36;100030.75;;;1.21;73.77
80137;BME280;69466;55.948;37.484;2024-02-23T10:23:04;100022.13;;;1.27;74.16
80137;BME280;69466;55.948;37.484;2024-02-23T10:25:33;100044.63;;;1.25;74.12
80137;BME280;69466;55.948;37.484;2024-02-23T10:28:08;100031.81;;;1.28;73.99
80137;BME280;69466;55.948;37.484;2024-02-23T10:30:36;99978.78;;;1.06;73.80
80137;BME280;69466;55.948;37.484;2024-02-23T10:33:19;100008.44;;;1.30;74.25
80137;BME280;69466;55.948;37.484;2024-02-23T10:35:48;100007.84;;;1.37;73.30
80137;BME280;69466;55.948;37.484;2024-02-23T10:38:28;100019.94;;;1.41;73.62
80137;BME280;69466;55.948;37.484;2024-02-23T10:40:58;100029.84;;;1.48;73.73
80137;BME280;69466;55.948;37.484;2024-02-23T10:43:30;100020.47;;;1.62;74.07
80137;BME280;69466;55.948;37.484;2024-02-23T10:46:33;100036.97;;;1.57;73.70
80137;BME280;69466;55.948;37.484;2024-02-23T10:49:02;100006.25;;;1.44;73.99
80137;BME280;69466;55.948;37.484;2024-02-23T10:51:33;100030.09;;;1.55;74.32
80137;BME280;69466;55.948;37.484;2024-02-23T10:54:09;100033.63;;;1.55;73.76
80137;BME280;69466;55.948;37.484;2024-02-23T10:56:38;100010.69;;;1.53;74.32
80137;BME280;69466;55.948;37.484;2024-02-23T10:59:08;100044.34;;;1.73;73.91
80137;BME280;69466;55.948;37.484;2024-02-23T11:02:12;100051.72;;;1.79;73.58
80137;BME280;69466;55.948;37.484;2024-02-23T11:04:47;100020.25;;;1.55;73.51
80137;BME280;69466;55.948;37.484;2024-02-23T11:07:33;100007.63;;;1.48;73.91
80137;BME280;69466;55.948;37.484;2024-02-23T11:10:00;100048.84;;;1.72;73.50
80137;BME280;69466;55.948;37.484;2024-02-23T11:12:33;100035.22;;;1.66;73.98
80137;BME280;69466;55.948;37.484;2024-02-23T11:15:02;100029.66;;;1.59;73.45
80137;BME280;69466;55.948;37.484;2024-02-23T11:17:35;100028.88;;;1.49;73.87
80137;BME280;69466;55.948;37.484;2024-02-23T11:20:05;100061.13;;;1.65;74.08
80137;BME280;69466;55.948;37.484;2024-02-23T11:22:34;100052.47;;;1.54;73.75
80137;BME280;69466;55.948;37.484;2024-02-23T11:25:03;100039.88;;;1.46;74.51
80137;BME280;69466;55.948;37.484;2024-02-23T11:27:31;100035.88;;;1.32;74.54
80137;BME280;69466;55.948;37.484;2024-02-23T11:30:43;100063.19;;;1.54;75.15
80137;BME280;69466;55.948;37.484;2024-02-23T11:33:10;100049.28;;;1.50;74.95
80137;BME280;69466;55.948;37.484;2024-02-23T11:35:46;100056.53;;;1.58;74.87
80137;BME280;69466;55.948;37.484;2024-02-23T11:38:16;100048.19;;;1.61;74.56
80137;BME280;69466;55.948;37.484;2024-02-23T11:40:43;100024.28;;;1.42;74.65
80137;BME280;69466;55.948;37.484;2024-02-23T11:43:17;100054.41;;;1.61;74.99
80137;BME280;69466;55.948;37.484;2024-02-23T11:45:48;100047.72;;;1.48;74.91
80137;BME280;69466;55.948;37.484;2024-02-23T11:48:15;100055.31;;;1.70;74.83
80137;BME280;69466;55.948;37.484;2024-02-23T11:50:43;100040.19;;;1.61;75.35
80137;BME280;69466;55.948;37.484;2024-02-23T11:53:11;100037.28;;;1.72;74.99
80137;BME280;69466;55.948;37.484;2024-02-23T11:55:38;100060.75;;;1.78;74.43
80137;BME280;69466;55.948;37.484;2024-02-23T11:58:05;100044.72;;;1.78;74.70
80137;BME280;69466;55.948;37.484;2024-02-23T12:00:33;100042.03;;;1.78;74.70
80137;BME280;69466;55.948;37.484;2024-02-23T12:03:03;100052.88;;;1.76;75.28
80137;BME280;69466;55.948;37.484;2024-02-23T12:05:31;100049.44;;;1.66;75.39
80137;BME280;69466;55.948;37.484;2024-02-23T12:07:59;100055.41;;;1.78;74.71
80137;BME280;69466;55.948;37.484;2024-02-23T12:10:27;100069.00;;;1.85;74.74
80137;BME280;69466;55.948;37.484;2024-02-23T12:12:54;100069.78;;;1.77;74.65
80137;BME280;69466;55.948;37.484;2024-02-23T12:15:22;100057.31;;;1.86;74.94
80137;BME280;69466;55.948;37.484;2024-02-23T12:17:49;100080.41;;;1.87;75.20
80137;BME280;69466;55.948;37.484;2024-02-23T12:20:20;100071.22;;;1.89;75.50
80137;BME280;69466;55.948;37.484;2024-02-23T12:22:47;100069.00;;;1.85;75.46
80137;BME280;69466;55.948;37.484;2024-02-23T12:25:17;100089.09;;;1.89;75.40
80137;BME280;69466;55.948;37.484;2024-02-23T12:27:54;100066.97;;;1.96;75.79
80137;BME280;69466;55.948;37.484;2024-02-23T12:30:22;100046.28;;;1.89;75.34
80137;BME280;69466;55.948;37.484;2024-02-23T12:32:48;100060.84;;;1.86;75.72
80137;BME280;69466;55.948;37.484;2024-02-23T12:35:27;100032.94;;;1.71;75.59
80137;BME280;69466;55.948;37.484;2024-02-23T12:38:01;100033.31;;;1.76;75.52
80137;BME280;69466;55.948;37.484;2024-02-23T12:40:39;100041.34;;;1.76;75.51
80137;BME280;69466;55.948;37.484;2024-02-23T12:43:09;100055.03;;;1.91;75.75
80137;BME280;69466;55.948;37.484;2024-02-23T12:45:44;100035.47;;;1.72;75.94
80137;BME280;69466;55.948;37.484;2024-02-23T12:48:18;100048.81;;;1.90;75.13
80137;BME280;69466;55.948;37.484;2024-02-23T12:50:55;100041.50;;;1.92;76.35
80137;BME280;69466;55.948;37.484;2024-02-23T12:57:47;100056.38;;;2.12;75.86
80137;BME280;69466;55.948;37.484;2024-02-23T13:00:21;100057.69;;;2.08;75.28
80137;BME280;69466;55.948;37.484;2024-02-23T13:02:49;100065.84;;;2.07;75.79
80137;BME280;69466;55.948;37.484;2024-02-23T13:05:18;100060.69;;;2.05;75.97